createdAt,value
2022-09-20T00:01:34.420Z,10.57
2022-09-20T00:04:06.980Z,10.56
2022-09-20T00:06:35.804Z,10.54
2022-09-20T00:09:05.779Z,10.57
2022-09-20T00:11:36.373Z,10.54
2022-09-20T00:14:08.736Z,10.50
2022-09-20T00:16:40.589Z,10.48
2022-09-20T00:19:16.192Z,10.50
2022-09-20T00:21:44.525Z,10.58
2022-09-20T00:24:12.912Z,10.68
2022-09-20T00:26:41.511Z,10.69
2022-09-20T00:29:09.807Z,10.71
2022-09-20T00:31:40.284Z,10.72
2022-09-20T00:34:29.091Z,10.73
2022-09-20T00:36:57.473Z,10.78
2022-09-20T00:39:25.998Z,10.81
2022-09-20T00:41:54.367Z,10.83
2022-09-20T00:44:45.339Z,10.84
2022-09-20T00:47:22.589Z,10.81
2022-09-20T00:49:57.381Z,10.81
2022-09-20T00:52:26.782Z,10.82
2022-09-20T00:54:56.228Z,10.79
2022-09-20T00:57:25.331Z,10.79
2022-09-20T00:59:55.076Z,10.79
2022-09-20T01:02:28.917Z,10.77
2022-09-20T01:04:59.882Z,10.76
2022-09-20T01:07:28.478Z,10.73
2022-09-20T01:09:57.361Z,10.71
2022-09-20T01:12:30.305Z,10.71
2022-09-20T01:15:00.710Z,10.70
2022-09-20T01:17:32.567Z,10.68
2022-09-20T01:20:14.610Z,10.69
2022-09-20T01:22:54.111Z,10.67
2022-09-20T01:25:41.170Z,10.72
2022-09-20T01:28:10.889Z,10.75
2022-09-20T01:30:44.847Z,10.74
2022-09-20T01:33:24.607Z,10.66
2022-09-20T01:35:55.623Z,10.65
2022-09-20T01:38:35.634Z,10.66
2022-09-20T01:41:08.887Z,10.66
2022-09-20T01:43:44.343Z,10.65
2022-09-20T01:46:29.930Z,10.65
2022-09-20T01:49:08.160Z,10.64
2022-09-20T01:52:07.521Z,10.64
2022-09-20T01:55:12.314Z,10.66
2022-09-20T01:58:14.031Z,10.66
2022-09-20T02:01:02.728Z,10.66
2022-09-20T02:03:55.656Z,10.69
2022-09-20T02:06:46.463Z,10.69
2022-09-20T02:09:37.100Z,10.67
2022-09-20T02:12:39.804Z,10.62
2022-09-20T02:15:18.817Z,10.58
2022-09-20T02:18:00.125Z,10.62
2022-09-20T02:20:37.108Z,10.69
2022-09-20T02:23:17.443Z,10.71
2022-09-20T02:26:16.188Z,10.72
2022-09-20T02:29:10.330Z,10.75
2022-09-20T02:31:56.057Z,10.76
2022-09-20T02:34:45.109Z,10.75
2022-09-20T02:37:34.656Z,10.76
2022-09-20T02:40:21.262Z,10.74
2022-09-20T02:42:56.876Z,10.70
2022-09-20T02:45:34.057Z,10.64
2022-09-20T02:48:05.980Z,10.66
2022-09-20T02:50:43.471Z,10.68
2022-09-20T02:53:28.180Z,10.69
2022-09-20T02:56:05.868Z,10.69
2022-09-20T02:58:45.772Z,10.75
2022-09-20T03:01:26.517Z,10.81
2022-09-20T03:04:03.534Z,10.83
2022-09-20T03:06:42.703Z,10.87
2022-09-20T03:09:19.416Z,10.88
2022-09-20T03:11:55.087Z,10.92
2022-09-20T03:14:29.403Z,10.91
2022-09-20T03:17:07.060Z,10.90
2022-09-20T03:19:53.019Z,10.88
2022-09-20T03:22:38.411Z,10.90
2022-09-20T03:25:27.235Z,10.93
2022-09-20T03:28:09.570Z,10.95
2022-09-20T03:30:50.960Z,10.94
2022-09-20T03:33:29.431Z,10.94
2022-09-20T03:36:13.458Z,10.89
2022-09-20T03:39:08.171Z,10.84
2022-09-20T03:41:53.962Z,10.82
2022-09-20T03:44:36.909Z,10.79
2022-09-20T03:47:15.815Z,10.73
2022-09-20T03:50:15.138Z,10.62
2022-09-20T03:53:01.991Z,10.54
2022-09-20T03:55:53.931Z,10.49
2022-09-20T03:58:36.284Z,10.47
2022-09-20T04:01:26.174Z,10.46
2022-09-20T04:04:03.210Z,10.41
2022-09-20T04:06:54.589Z,10.37
2022-09-20T04:09:55.321Z,10.36
2022-09-20T04:12:32.624Z,10.35
2022-09-20T04:15:17.088Z,10.36
2022-09-20T04:17:53.343Z,10.38
2022-09-20T04:20:29.039Z,10.41
2022-09-20T04:23:00.710Z,10.40
2022-09-20T04:25:40.701Z,10.38
2022-09-20T04:28:22.666Z,10.36
2022-09-20T04:30:55.426Z,10.34
2022-09-20T04:33:29.304Z,10.33
2022-09-20T04:36:27.723Z,10.41
2022-09-20T04:39:16.186Z,10.48
2022-09-20T04:42:30.157Z,10.50
2022-09-20T04:45:42.752Z,10.53
2022-09-20T04:48:33.340Z,10.53
2022-09-20T04:51:27.152Z,10.50
2022-09-20T04:54:39.112Z,10.46
2022-09-20T04:57:34.474Z,10.49
2022-09-20T05:00:08.732Z,10.55
2022-09-20T05:03:15.625Z,10.61
2022-09-20T05:06:05.125Z,10.63
2022-09-20T05:09:02.675Z,10.62
2022-09-20T05:12:03.562Z,10.61
2022-09-20T05:14:55.365Z,10.61
2022-09-20T05:17:37.194Z,10.59
2022-09-20T05:20:31.849Z,10.60
2022-09-20T05:23:31.992Z,10.66
2022-09-20T05:26:14.812Z,10.68
2022-09-20T05:28:54.843Z,10.68
2022-09-20T05:31:34.171Z,10.69
2022-09-20T05:34:13.759Z,10.71
2022-09-20T05:36:56.666Z,10.68
2022-09-20T05:39:35.636Z,10.66
2022-09-20T05:42:16.808Z,10.64
2022-09-20T05:45:18.086Z,10.65
2022-09-20T05:47:56.291Z,10.75
2022-09-20T05:50:43.826Z,10.82
2022-09-20T05:53:39.077Z,10.83
2022-09-20T05:56:19.311Z,10.87
2022-09-20T05:59:12.300Z,10.87
2022-09-20T06:01:43.427Z,10.87
2022-09-20T06:04:19.028Z,10.86
2022-09-20T06:06:57.007Z,10.89
2022-09-20T06:09:45.481Z,10.95
2022-09-20T06:12:31.863Z,10.99
2022-09-20T06:15:13.531Z,11.01
2022-09-20T06:17:46.319Z,11.04
2022-09-20T06:20:26.724Z,11.03
2022-09-20T06:22:56.972Z,11.05
2022-09-20T06:25:31.475Z,11.07
2022-09-20T06:28:06.168Z,11.11
2022-09-20T06:30:38.293Z,11.13
2022-09-20T06:33:15.722Z,11.18
2022-09-20T06:35:50.042Z,11.21
2022-09-20T06:39:02.401Z,11.24
2022-09-20T06:41:36.211Z,11.28
2022-09-20T06:44:06.484Z,11.32
2022-09-20T06:46:36.879Z,11.35
2022-09-20T06:49:09.578Z,11.31
2022-09-20T06:51:40.064Z,11.32
2022-09-20T06:54:15.414Z,11.37
2022-09-20T06:56:47.176Z,11.41
2022-09-20T06:59:16.228Z,11.48
2022-09-20T07:01:44.706Z,11.53
2022-09-20T07:04:13.311Z,11.60
2022-09-20T07:06:41.929Z,11.65
2022-09-20T07:09:12.574Z,11.68
2022-09-20T07:11:40.984Z,11.73
2022-09-20T07:14:10.911Z,11.76
2022-09-20T07:16:40.078Z,11.79
2022-09-20T07:19:08.477Z,11.78
2022-09-20T07:21:37.040Z,11.78
2022-09-20T07:24:05.590Z,11.77
2022-09-20T07:26:34.153Z,11.75
2022-09-20T07:29:02.960Z,11.73
2022-09-20T07:31:32.919Z,11.66
2022-09-20T07:34:01.848Z,11.62
2022-09-20T07:36:30.298Z,11.62
2022-09-20T07:38:58.737Z,11.63
2022-09-20T07:41:32.305Z,11.67
2022-09-20T07:44:21.298Z,11.73
2022-09-20T07:46:51.448Z,11.75
2022-09-20T07:49:20.710Z,11.78
2022-09-20T07:51:49.898Z,11.80
2022-09-20T07:54:18.766Z,11.79
2022-09-20T07:56:47.611Z,11.80
2022-09-20T07:59:16.322Z,11.79
2022-09-20T08:01:44.815Z,11.79
2022-09-20T08:04:15.035Z,11.77
2022-09-20T08:06:46.368Z,11.75
2022-09-20T08:09:15.181Z,11.73
2022-09-20T08:11:43.852Z,11.73
2022-09-20T08:14:15.106Z,11.74
2022-09-20T08:16:44.923Z,11.78
2022-09-20T08:19:18.351Z,11.85
2022-09-20T08:21:46.954Z,11.91
2022-09-20T08:24:16.412Z,11.94
2022-09-20T08:26:45.613Z,12.01
2022-09-20T08:29:15.287Z,12.08
2022-09-20T08:31:43.989Z,12.15
2022-09-20T08:34:15.098Z,12.21
2022-09-20T08:36:47.402Z,12.29
2022-09-20T08:42:14.238Z,12.63
2022-09-20T08:44:59.992Z,12.72
2022-09-20T08:47:32.042Z,12.74
2022-09-20T08:50:09.031Z,12.73
2022-09-20T08:52:41.476Z,12.71
2022-09-20T08:55:17.084Z,12.70
2022-09-20T08:57:50.081Z,12.66
2022-09-20T09:00:21.130Z,12.54
2022-09-20T09:02:51.736Z,12.39
2022-09-20T09:05:36.401Z,12.17
2022-09-20T09:08:16.203Z,11.90
2022-09-20T09:10:46.927Z,11.60
2022-09-20T09:13:22.985Z,11.34
2022-09-20T09:15:57.757Z,11.12
2022-09-20T09:18:35.938Z,10.95
2022-09-20T09:21:05.883Z,10.95
2022-09-20T09:23:42.371Z,10.94
2022-09-20T09:26:21.223Z,10.93
2022-09-20T09:29:16.703Z,10.89
2022-09-20T09:31:45.500Z,10.82
2022-09-20T09:34:28.441Z,10.90
2022-09-20T09:36:57.368Z,10.91
2022-09-20T09:39:30.499Z,10.90
2022-09-20T09:42:00.923Z,10.93
2022-09-20T09:44:32.813Z,10.93
2022-09-20T09:47:01.551Z,10.89
2022-09-20T09:49:37.166Z,10.92
2022-09-20T09:52:14.503Z,10.89
2022-09-20T09:54:49.154Z,10.89
2022-09-20T09:57:39.388Z,10.86
2022-09-20T10:00:19.951Z,10.85
2022-09-20T10:03:17.362Z,10.86
2022-09-20T10:05:57.374Z,10.90
2022-09-20T10:08:36.241Z,10.93
2022-09-20T10:11:19.533Z,10.91
2022-09-20T10:13:54.289Z,10.91
2022-09-20T10:16:32.213Z,11.00
2022-09-20T10:19:08.050Z,11.10
2022-09-20T10:21:48.766Z,11.18
2022-09-20T10:24:30.604Z,11.23
2022-09-20T10:27:12.695Z,11.28
2022-09-20T10:29:57.252Z,11.42
2022-09-20T10:32:36.166Z,11.57
2022-09-20T10:35:26.219Z,11.67
2022-09-20T10:38:15.575Z,11.72
2022-09-20T10:41:13.586Z,11.82
2022-09-20T10:44:02.719Z,11.80
2022-09-20T10:46:45.560Z,11.77
2022-09-20T10:49:24.926Z,11.80
2022-09-20T10:52:11.671Z,11.78
2022-09-20T10:54:54.244Z,11.72
2022-09-20T10:58:01.590Z,11.72
2022-09-20T11:00:43.462Z,11.77
2022-09-20T11:03:26.688Z,11.81
2022-09-20T11:06:05.440Z,11.76
2022-09-20T11:08:35.582Z,11.74
2022-09-20T11:11:10.545Z,11.83
2022-09-20T11:13:45.615Z,11.85
2022-09-20T11:16:21.202Z,11.77
2022-09-20T11:18:56.033Z,11.75
2022-09-20T11:21:28.275Z,11.80
2022-09-20T11:24:03.703Z,11.90
2022-09-20T11:26:39.018Z,11.97
2022-09-20T11:29:23.555Z,12.12
2022-09-20T11:31:56.665Z,12.29
2022-09-20T11:34:30.574Z,12.39
2022-09-20T11:37:02.603Z,12.46
2022-09-20T11:39:40.498Z,12.50
2022-09-20T11:42:16.230Z,12.61
2022-09-20T11:44:44.941Z,12.70
2022-09-20T11:47:42.734Z,12.96
2022-09-20T11:50:46.851Z,13.34
2022-09-20T11:53:34.485Z,13.57
2022-09-20T11:56:08.745Z,13.56
2022-09-20T11:58:49.037Z,13.39
2022-09-20T12:01:28.494Z,13.31
2022-09-20T12:04:30.729Z,13.31
2022-09-20T12:07:01.629Z,13.36
2022-09-20T12:09:41.097Z,13.55
2022-09-20T12:12:20.158Z,13.77
2022-09-20T12:14:56.368Z,13.88
2022-09-20T12:18:05.523Z,13.85
2022-09-20T12:21:03.929Z,13.87
2022-09-20T12:24:08.574Z,13.90
2022-09-20T12:26:57.492Z,13.97
2022-09-20T12:30:04.192Z,13.98
2022-09-20T12:32:48.294Z,14.09
2022-09-20T12:35:53.244Z,14.15
2022-09-20T12:38:46.586Z,14.12
2022-09-20T12:41:27.588Z,13.99
2022-09-20T12:44:01.097Z,13.93
2022-09-20T12:46:43.605Z,13.97
2022-09-20T12:49:55.940Z,14.15
2022-09-20T12:52:56.300Z,14.18
2022-09-20T12:55:40.935Z,14.22
2022-09-20T12:58:22.922Z,14.16
2022-09-20T13:01:14.566Z,14.13
2022-09-20T13:03:45.058Z,14.04
2022-09-20T13:06:24.958Z,13.98
2022-09-20T13:09:02.145Z,13.97
2022-09-20T13:11:38.475Z,13.98
2022-09-20T13:14:13.446Z,13.98
2022-09-20T13:16:51.123Z,13.96
2022-09-20T13:19:21.345Z,13.98
2022-09-20T13:21:58.284Z,14.01
2022-09-20T13:24:29.796Z,14.13
2022-09-20T13:27:04.327Z,14.24
2022-09-20T13:29:35.839Z,14.25
2022-09-20T13:32:18.525Z,14.28
2022-09-20T13:34:46.993Z,14.28
2022-09-20T13:37:23.668Z,14.29
2022-09-20T13:39:55.608Z,14.28
2022-09-20T13:42:28.926Z,14.25
2022-09-20T13:44:59.627Z,14.27
2022-09-20T13:47:30.123Z,14.28
2022-09-20T13:50:02.973Z,14.27
2022-09-20T13:52:33.075Z,14.23
2022-09-20T13:55:01.436Z,14.14
2022-09-20T13:57:31.820Z,14.10
2022-09-20T14:00:02.250Z,14.11
2022-09-20T14:02:32.847Z,14.21
2022-09-20T14:05:03.243Z,14.31
2022-09-20T14:07:32.189Z,14.44
2022-09-20T14:10:00.901Z,14.43
2022-09-20T14:12:31.164Z,14.41
2022-09-20T14:14:59.846Z,14.41
2022-09-20T14:17:33.133Z,14.35
2022-09-20T14:20:01.900Z,14.25
2022-09-20T14:22:30.608Z,14.17
2022-09-20T14:25:02.350Z,14.11
2022-09-20T14:27:32.716Z,14.02
2022-09-20T14:30:02.379Z,13.94
2022-09-20T14:32:40.746Z,13.89
2022-09-20T14:35:16.957Z,13.89
2022-09-20T14:37:51.733Z,13.89
2022-09-20T14:40:24.332Z,13.90
2022-09-20T14:42:57.272Z,13.94
2022-09-20T14:45:30.257Z,13.98
2022-09-20T14:48:05.679Z,13.97
2022-09-20T14:50:41.055Z,13.98
2022-09-20T14:53:30.991Z,14.01
2022-09-20T14:56:07.953Z,14.02
2022-09-20T15:02:04.046Z,14.02
2022-09-20T15:04:35.387Z,14.00
2022-09-20T15:07:06.371Z,14.01
2022-09-20T15:09:35.498Z,13.98
2022-09-20T15:12:17.814Z,13.89
2022-09-20T15:14:46.506Z,13.79
2022-09-20T15:17:18.836Z,13.75
2022-09-20T15:19:47.673Z,13.73
2022-09-20T15:22:16.642Z,13.73
2022-09-20T15:24:45.147Z,13.72
2022-09-20T15:27:14.121Z,13.72
2022-09-20T15:29:42.484Z,13.73
2022-09-20T15:32:12.019Z,13.71
2022-09-20T15:34:41.855Z,13.69
2022-09-20T15:37:10.196Z,13.67
2022-09-20T15:39:38.538Z,13.70
2022-09-20T15:42:06.959Z,13.71
2022-09-20T15:44:35.338Z,13.74
2022-09-20T15:47:04.538Z,13.71
2022-09-20T15:49:33.240Z,13.71
2022-09-20T15:52:03.451Z,13.70
2022-09-20T15:54:31.958Z,13.65
2022-09-20T15:57:00.286Z,13.59
2022-09-20T15:59:29.302Z,13.55
2022-09-20T16:01:57.908Z,13.53
2022-09-20T16:04:27.195Z,13.53
2022-09-20T16:06:55.510Z,13.49
2022-09-20T16:09:25.262Z,13.51
2022-09-20T16:11:58.689Z,13.54
2022-09-20T16:14:27.363Z,13.50
2022-09-20T16:16:58.479Z,13.48
2022-09-20T16:19:26.201Z,13.44
2022-09-20T16:21:58.990Z,13.36
2022-09-20T16:24:30.958Z,13.27
2022-09-20T16:27:02.456Z,13.18
2022-09-20T16:29:31.257Z,13.12
2022-09-20T16:32:00.864Z,13.13
2022-09-20T16:34:31.374Z,13.08
2022-09-20T16:37:01.376Z,13.02
2022-09-20T16:39:32.073Z,12.98
2022-09-20T16:42:03.611Z,12.95
2022-09-20T16:44:32.353Z,12.89
2022-09-20T16:47:01.223Z,12.86
2022-09-20T16:49:29.870Z,12.86
2022-09-20T16:51:58.249Z,12.84
2022-09-20T16:54:31.563Z,12.84
2022-09-20T16:57:02.143Z,12.80
2022-09-20T16:59:30.530Z,12.79
2022-09-20T17:01:59.158Z,12.74
2022-09-20T17:04:27.753Z,12.71
2022-09-20T17:06:56.227Z,12.66
2022-09-20T17:09:24.612Z,12.60
2022-09-20T17:11:53.750Z,12.58
2022-09-20T17:14:24.969Z,12.56
2022-09-20T17:16:53.305Z,12.54
2022-09-20T17:19:21.943Z,12.52
2022-09-20T17:21:51.522Z,12.53
2022-09-20T17:24:21.622Z,12.55
2022-09-20T17:26:51.009Z,12.56
2022-09-20T17:29:20.619Z,12.54
2022-09-20T17:31:55.651Z,12.54
2022-09-20T17:34:26.296Z,12.59
2022-09-20T17:36:55.326Z,12.62
2022-09-20T17:39:24.429Z,12.64
2022-09-20T17:41:52.803Z,12.68
2022-09-20T17:44:21.276Z,12.71
2022-09-20T17:46:53.821Z,12.70
2022-09-20T17:49:24.152Z,12.63
2022-09-20T17:51:54.374Z,12.56
2022-09-20T17:54:24.474Z,12.57
2022-09-20T17:56:55.833Z,12.61
2022-09-20T17:59:24.982Z,12.58
2022-09-20T18:01:55.647Z,12.58
2022-09-20T18:04:25.240Z,12.60
2022-09-20T18:06:54.833Z,12.58
2022-09-20T18:09:25.271Z,12.57
2022-09-20T18:11:54.847Z,12.56
2022-09-20T18:14:24.554Z,12.56
2022-09-20T18:16:55.947Z,12.52
2022-09-20T18:19:24.360Z,12.52
2022-09-20T18:21:52.941Z,12.51
2022-09-20T18:24:21.269Z,12.50
2022-09-20T18:26:49.602Z,12.48
2022-09-20T18:29:18.505Z,12.41
2022-09-20T18:31:48.783Z,12.33
2022-09-20T18:34:20.610Z,12.26
2022-09-20T18:36:52.602Z,12.19
2022-09-20T18:39:21.620Z,12.16
2022-09-20T18:41:50.773Z,12.10
2022-09-20T18:44:19.412Z,12.07
2022-09-20T18:46:48.182Z,12.08
2022-09-20T18:49:18.001Z,11.98
2022-09-20T18:51:47.401Z,11.87
2022-09-20T18:54:16.641Z,11.81
2022-09-20T18:56:47.657Z,11.73
2022-09-20T18:59:18.456Z,11.73
2022-09-20T19:02:08.490Z,11.72
2022-09-20T19:04:55.194Z,11.70
2022-09-20T19:07:32.952Z,11.71
2022-09-20T19:10:09.202Z,11.65
2022-09-20T19:12:44.168Z,11.61
2022-09-20T19:15:37.225Z,11.63
2022-09-20T19:18:23.651Z,11.68
2022-09-20T19:20:59.402Z,11.73
2022-09-20T19:23:45.575Z,11.77
2022-09-20T19:26:21.906Z,11.75
2022-09-20T19:28:51.741Z,11.70
2022-09-20T19:31:25.498Z,11.59
2022-09-20T19:33:56.119Z,11.51
2022-09-20T19:36:36.333Z,11.46
2022-09-20T19:39:11.235Z,11.43
2022-09-20T19:41:51.975Z,11.42
2022-09-20T19:44:33.891Z,11.44
2022-09-20T19:47:22.328Z,11.49
2022-09-20T19:49:55.209Z,11.53
2022-09-20T19:52:26.045Z,11.55
2022-09-20T19:54:55.239Z,11.56
2022-09-20T19:57:28.479Z,11.49
2022-09-20T19:59:57.971Z,11.48
2022-09-20T20:02:26.871Z,11.55
2022-09-20T20:04:56.100Z,11.62
2022-09-20T20:07:34.599Z,11.70
2022-09-20T20:10:11.569Z,11.73
2022-09-20T20:12:48.665Z,11.77
2022-09-20T20:15:26.527Z,11.78
2022-09-20T20:18:01.901Z,11.82
2022-09-20T20:20:35.632Z,11.83
2022-09-20T20:23:42.383Z,11.79
2022-09-20T20:26:18.125Z,11.77
2022-09-20T20:28:46.577Z,11.77
2022-09-20T20:31:15.591Z,11.79
2022-09-20T20:33:44.428Z,11.79
2022-09-20T20:36:12.884Z,11.77
2022-09-20T20:38:49.449Z,11.75
2022-09-20T20:41:21.301Z,11.72
2022-09-20T20:43:57.073Z,11.73
2022-09-20T20:46:26.346Z,11.78
2022-09-20T20:48:54.770Z,11.79
2022-09-20T20:51:24.344Z,11.78
2022-09-20T20:53:55.528Z,11.73
2022-09-20T20:56:26.756Z,11.70
2022-09-20T20:58:55.224Z,11.67
2022-09-20T21:01:25.352Z,11.69
2022-09-20T21:03:54.997Z,11.69
2022-09-20T21:06:26.347Z,11.70
2022-09-20T21:08:56.284Z,11.73
2022-09-20T21:11:27.301Z,11.73
2022-09-20T21:13:58.224Z,11.67
2022-09-20T21:16:28.687Z,11.61
2022-09-20T21:18:58.078Z,11.56
2022-09-20T21:21:28.170Z,11.45
2022-09-20T21:24:00.090Z,11.39
2022-09-20T21:26:31.885Z,11.40
2022-09-20T21:29:02.386Z,11.35
2022-09-20T21:31:32.999Z,11.30
2022-09-20T21:34:01.819Z,11.26
2022-09-20T21:36:31.255Z,11.22
2022-09-20T21:39:00.947Z,11.15
2022-09-20T21:41:31.599Z,11.13
2022-09-20T21:44:02.251Z,11.13
2022-09-20T21:46:33.326Z,11.17
2022-09-20T21:49:04.011Z,11.22
2022-09-20T21:51:33.086Z,11.25
2022-09-20T21:54:03.898Z,11.23
2022-09-20T21:56:34.198Z,11.26
2022-09-20T21:59:04.225Z,11.28
2022-09-20T22:01:34.894Z,11.30
2022-09-20T22:04:07.065Z,11.31
2022-09-20T22:06:37.192Z,11.26
2022-09-20T22:09:09.569Z,11.19
2022-09-20T22:11:40.477Z,11.15
2022-09-20T22:14:09.915Z,11.16
2022-09-20T22:16:40.098Z,11.18
2022-09-20T22:19:09.963Z,11.15
2022-09-20T22:21:40.980Z,11.08
2022-09-20T22:24:12.141Z,11.00
2022-09-20T22:26:42.848Z,10.99
2022-09-20T22:29:11.901Z,10.96
2022-09-20T22:31:45.053Z,10.86
2022-09-20T22:34:16.138Z,10.86
2022-09-20T22:36:45.343Z,10.86
2022-09-20T22:39:16.243Z,10.79
2022-09-20T22:41:45.187Z,10.74
2022-09-20T22:44:13.523Z,10.76
2022-09-20T22:46:41.945Z,10.76
2022-09-20T22:49:10.935Z,10.75
2022-09-20T22:51:39.439Z,10.68
2022-09-20T22:54:09.223Z,10.65
2022-09-20T22:56:41.417Z,10.67
2022-09-20T22:59:11.858Z,10.64
2022-09-20T23:01:42.611Z,10.58
2022-09-20T23:04:12.783Z,10.51
2022-09-20T23:06:42.720Z,10.42
2022-09-20T23:09:12.557Z,10.35
2022-09-20T23:11:43.318Z,10.35
2022-09-20T23:14:14.421Z,10.40
2022-09-20T23:16:43.124Z,10.43
2022-09-20T23:19:12.344Z,10.51
2022-09-20T23:21:42.291Z,10.57
2022-09-20T23:24:13.495Z,10.59
2022-09-20T23:26:44.100Z,10.65
2022-09-20T23:29:14.632Z,10.67
2022-09-20T23:31:46.400Z,10.68
2022-09-20T23:34:16.721Z,10.67
2022-09-20T23:36:46.066Z,10.63
2022-09-20T23:39:14.898Z,10.62
2022-09-20T23:41:49.885Z,10.59
2022-09-20T23:44:19.154Z,10.58
2022-09-20T23:46:47.509Z,10.60
2022-09-20T23:49:15.866Z,10.60
2022-09-20T23:51:44.178Z,10.61
2022-09-20T23:54:12.751Z,10.63
2022-09-20T23:56:42.747Z,10.64
2022-09-20T23:59:12.673Z,10.64
